createdAt,value
2022-10-02T00:00:47.750Z,10.85
2022-10-02T00:22:34.309Z,11.34
2022-10-02T00:25:40.188Z,11.34
2022-10-02T00:28:48.952Z,10.89
2022-10-02T00:31:58.176Z,10.88
2022-10-02T00:35:00.606Z,10.85
2022-10-02T00:38:03.335Z,10.85
2022-10-02T00:41:09.000Z,10.83
2022-10-02T00:44:26.768Z,10.69
2022-10-02T00:47:39.481Z,10.64
2022-10-02T00:51:02.455Z,10.66
2022-10-02T00:54:23.936Z,10.75
2022-10-02T00:57:45.675Z,10.65
2022-10-02T01:00:49.779Z,10.43
2022-10-02T01:03:56.677Z,10.31
2022-10-02T01:06:59.241Z,10.32
2022-10-02T01:10:01.906Z,10.39
2022-10-02T01:13:04.985Z,10.39
2022-10-02T01:16:09.664Z,10.44
2022-10-02T01:19:31.823Z,10.27
2022-10-02T01:22:36.110Z,10.44
2022-10-02T01:25:38.796Z,10.40
2022-10-02T01:28:41.561Z,10.45
2022-10-02T01:31:44.006Z,10.39
2022-10-02T01:34:46.977Z,10.41
2022-10-02T01:37:49.687Z,10.43
2022-10-02T01:40:52.597Z,10.41
2022-10-02T01:43:56.202Z,10.43
2022-10-02T01:47:10.817Z,10.52
2022-10-02T01:50:18.105Z,10.59
2022-10-02T01:53:35.760Z,10.50
2022-10-02T01:56:47.434Z,10.59
2022-10-02T01:59:49.988Z,10.56
2022-10-02T02:02:52.915Z,10.55
2022-10-02T02:06:03.746Z,10.60
2022-10-02T02:09:09.166Z,10.73
2022-10-02T02:12:13.122Z,10.70
2022-10-02T02:15:34.361Z,10.83
2022-10-02T02:18:48.215Z,10.83
2022-10-02T02:21:54.684Z,10.89
2022-10-02T02:25:02.947Z,10.85
2022-10-02T02:28:06.892Z,10.95
2022-10-02T02:31:10.374Z,10.83
2022-10-02T02:34:13.809Z,10.81
2022-10-02T02:37:19.265Z,10.83
2022-10-02T02:40:24.046Z,10.95
2022-10-02T02:43:31.796Z,10.96
2022-10-02T02:46:56.848Z,11.00
2022-10-02T02:50:01.276Z,10.93
2022-10-02T02:53:06.145Z,10.96
2022-10-02T02:56:10.354Z,10.86
2022-10-02T02:59:14.667Z,10.85
2022-10-02T03:02:17.493Z,10.83
2022-10-02T03:05:22.065Z,10.78
2022-10-02T03:08:27.040Z,10.85
2022-10-02T03:11:33.225Z,10.78
2022-10-02T03:14:40.078Z,10.77
2022-10-02T03:17:49.831Z,10.83
2022-10-02T03:20:55.280Z,10.85
2022-10-02T03:24:16.248Z,10.83
2022-10-02T03:27:31.387Z,10.92
2022-10-02T03:30:37.538Z,10.86
2022-10-02T03:33:40.283Z,10.77
2022-10-02T03:36:42.831Z,10.90
2022-10-02T03:39:45.654Z,10.86
2022-10-02T03:42:48.110Z,10.96
2022-10-02T03:45:51.835Z,10.98
2022-10-02T03:48:56.690Z,10.86
2022-10-02T03:51:59.429Z,10.88
2022-10-02T03:55:04.249Z,10.87
2022-10-02T03:58:10.899Z,10.85
2022-10-02T04:01:32.327Z,10.76
2022-10-02T04:04:39.962Z,10.80
2022-10-02T04:07:42.711Z,10.74
2022-10-02T04:10:45.489Z,10.72
2022-10-02T04:13:49.105Z,10.74
2022-10-02T04:17:03.367Z,10.75
2022-10-02T04:20:17.185Z,10.68
2022-10-02T04:23:21.877Z,10.66
2022-10-02T04:26:25.811Z,10.74
2022-10-02T04:29:32.436Z,10.64
2022-10-02T04:32:36.086Z,10.60
2022-10-02T04:35:51.166Z,10.52
2022-10-02T04:39:02.577Z,10.43
2022-10-02T04:42:09.627Z,10.37
2022-10-02T04:45:28.018Z,10.31
2022-10-02T04:48:34.428Z,10.26
2022-10-02T04:51:41.423Z,10.27
2022-10-02T04:55:15.955Z,10.23
2022-10-02T04:58:25.064Z,10.30
2022-10-02T05:01:43.331Z,10.25
2022-10-02T05:04:53.221Z,10.22
2022-10-02T05:08:17.915Z,10.30
2022-10-02T05:11:23.490Z,10.30
2022-10-02T05:14:35.405Z,10.36
2022-10-02T05:17:53.190Z,10.32
2022-10-02T05:20:58.948Z,10.39
2022-10-02T05:24:08.521Z,10.35
2022-10-02T05:27:17.427Z,10.40
2022-10-02T05:30:20.046Z,10.28
2022-10-02T05:33:31.830Z,10.38
2022-10-02T05:36:46.848Z,10.37
2022-10-02T05:39:57.240Z,10.43
2022-10-02T05:42:59.695Z,10.45
2022-10-02T05:46:04.100Z,10.55
2022-10-02T05:49:07.665Z,10.66
2022-10-02T05:52:14.246Z,10.57
2022-10-02T05:55:17.652Z,10.71
2022-10-02T05:58:27.777Z,10.64
2022-10-02T06:01:31.238Z,10.78
2022-10-02T06:04:34.495Z,10.82
2022-10-02T06:07:37.616Z,10.81
2022-10-02T06:10:51.115Z,10.81
2022-10-02T06:13:55.323Z,10.95
2022-10-02T06:16:59.731Z,11.01
2022-10-02T06:20:09.415Z,11.18
2022-10-02T06:23:13.553Z,11.19
2022-10-02T06:26:25.212Z,11.17
2022-10-02T06:29:29.609Z,11.34
2022-10-02T06:32:39.634Z,11.30
2022-10-02T06:35:45.536Z,11.36
2022-10-02T06:39:06.810Z,11.48
2022-10-02T06:42:18.140Z,11.48
2022-10-02T06:45:23.858Z,11.34
2022-10-02T07:01:25.533Z,12.07
2022-10-02T07:04:52.359Z,12.19
2022-10-02T07:08:03.192Z,12.31
2022-10-02T07:11:08.891Z,12.42
2022-10-02T07:14:41.216Z,12.57
2022-10-02T07:17:44.146Z,12.61
2022-10-02T07:20:55.884Z,12.84
2022-10-02T07:24:22.225Z,12.93
2022-10-02T07:27:44.853Z,12.88
2022-10-02T07:30:54.678Z,13.02
2022-10-02T07:38:06.185Z,13.25
2022-10-02T07:41:30.443Z,13.24
2022-10-02T07:44:44.807Z,13.10
2022-10-02T07:48:04.222Z,13.31
2022-10-02T07:51:37.927Z,13.31
2022-10-02T07:54:41.214Z,13.35
2022-10-02T07:57:49.706Z,13.51
2022-10-02T08:00:54.144Z,13.65
2022-10-02T08:04:03.875Z,13.59
2022-10-02T08:07:06.860Z,13.70
2022-10-02T08:10:11.495Z,13.77
2022-10-02T08:16:46.883Z,14.05
2022-10-02T08:19:50.191Z,14.25
2022-10-02T08:23:13.331Z,14.54
2022-10-02T08:26:23.388Z,14.10
2022-10-02T08:29:28.231Z,14.10
2022-10-02T08:32:34.678Z,14.12
2022-10-02T08:36:00.603Z,14.13
2022-10-02T08:39:03.427Z,14.08
2022-10-02T08:42:20.373Z,14.09
2022-10-02T08:45:41.537Z,14.30
2022-10-02T08:48:55.050Z,14.44
2022-10-02T08:52:16.323Z,14.17
2022-10-02T08:55:31.383Z,14.36
2022-10-02T08:58:53.453Z,14.49
2022-10-02T09:02:02.439Z,14.57
2022-10-02T09:05:23.617Z,14.65
2022-10-02T09:08:29.673Z,14.79
2022-10-02T09:11:48.350Z,14.66
2022-10-02T09:15:10.535Z,14.61
2022-10-02T09:21:52.036Z,15.02
2022-10-02T09:25:00.507Z,15.27
2022-10-02T09:28:13.081Z,15.35
2022-10-02T09:31:16.289Z,15.47
2022-10-02T09:34:38.578Z,15.37
2022-10-02T09:37:44.409Z,15.41
2022-10-02T09:40:50.226Z,15.44
2022-10-02T09:43:52.823Z,15.70
2022-10-02T09:46:55.873Z,15.44
2022-10-02T09:50:03.221Z,15.94
2022-10-02T09:53:37.418Z,16.10
2022-10-02T09:57:00.531Z,16.40
2022-10-02T10:00:06.151Z,16.14
2022-10-02T10:03:14.434Z,16.07
2022-10-02T10:06:20.370Z,16.45
2022-10-02T10:09:22.818Z,16.18
2022-10-02T10:12:43.756Z,16.23
2022-10-02T10:15:52.932Z,15.81
2022-10-02T10:19:32.500Z,15.84
2022-10-02T10:22:57.794Z,16.33
2022-10-02T10:26:09.910Z,16.27
2022-10-02T10:29:31.996Z,16.11
2022-10-02T10:32:53.426Z,16.21
2022-10-02T10:36:06.250Z,16.06
2022-10-02T10:39:19.429Z,16.14
2022-10-02T10:42:24.309Z,16.29
2022-10-02T10:45:40.391Z,16.25
2022-10-02T10:48:49.353Z,16.40
2022-10-02T10:52:02.463Z,16.02
2022-10-02T10:55:12.497Z,16.09
2022-10-02T10:58:21.400Z,16.48
2022-10-02T11:01:24.077Z,16.44
2022-10-02T11:04:41.381Z,16.52
2022-10-02T11:08:06.012Z,16.35
2022-10-02T11:11:13.033Z,16.01
2022-10-02T11:14:41.039Z,15.81
2022-10-02T11:17:54.206Z,16.19
2022-10-02T11:21:16.927Z,16.17
2022-10-02T11:24:29.219Z,16.03
2022-10-02T11:27:57.918Z,16.02
2022-10-02T11:31:06.115Z,16.16
2022-10-02T11:34:08.759Z,16.06
2022-10-02T11:37:34.135Z,15.88
2022-10-02T11:40:39.546Z,15.85
2022-10-02T11:43:48.517Z,15.92
2022-10-02T11:46:57.860Z,15.78
2022-10-02T11:50:19.349Z,15.80
2022-10-02T11:53:29.445Z,15.99
2022-10-02T11:57:01.862Z,16.37
2022-10-02T12:00:16.169Z,17.28
2022-10-02T12:03:31.499Z,17.95
2022-10-02T12:06:42.323Z,17.25
2022-10-02T12:10:05.459Z,17.01
2022-10-02T12:13:26.187Z,17.96
2022-10-02T12:16:52.023Z,18.62
2022-10-02T12:20:19.361Z,19.43
2022-10-02T12:24:00.050Z,17.77
2022-10-02T12:27:10.987Z,18.81
2022-10-02T12:30:22.654Z,19.43
2022-10-02T12:33:34.549Z,18.97
2022-10-02T12:36:40.910Z,18.62
2022-10-02T12:40:02.223Z,18.52
2022-10-02T12:43:48.468Z,18.27
2022-10-02T12:46:51.493Z,17.50
2022-10-02T12:50:03.057Z,16.85
2022-10-02T12:53:08.618Z,16.69
2022-10-02T12:56:24.222Z,16.56
2022-10-02T12:59:50.928Z,16.23
2022-10-02T13:03:09.231Z,15.86
2022-10-02T13:06:31.700Z,15.58
2022-10-02T13:09:34.738Z,15.18
2022-10-02T13:12:56.447Z,15.24
2022-10-02T13:16:05.155Z,15.27
2022-10-02T13:19:19.443Z,15.09
2022-10-02T13:22:37.305Z,15.12
2022-10-02T13:26:04.605Z,14.97
2022-10-02T13:33:08.543Z,14.99
2022-10-02T13:36:36.251Z,15.00
2022-10-02T13:39:38.855Z,14.86
2022-10-02T13:46:28.109Z,14.93
2022-10-02T14:01:59.414Z,15.59
2022-10-02T14:09:07.452Z,15.67
2022-10-02T14:12:29.100Z,15.75
2022-10-02T14:15:37.749Z,15.99
2022-10-02T14:19:01.195Z,15.83
2022-10-02T14:22:29.683Z,15.54
2022-10-02T14:25:33.656Z,15.38
2022-10-02T14:28:39.468Z,15.29
2022-10-02T14:31:49.757Z,15.07
2022-10-02T14:34:59.194Z,14.83
2022-10-02T14:38:11.802Z,14.65
2022-10-02T14:41:21.841Z,14.60
2022-10-02T14:44:45.383Z,14.61
2022-10-02T14:48:07.310Z,14.58
2022-10-02T14:51:34.076Z,14.69
2022-10-02T14:54:57.318Z,14.61
2022-10-02T14:58:06.515Z,14.43
2022-10-02T15:01:12.081Z,14.63
2022-10-02T15:08:21.725Z,14.54
2022-10-02T15:11:04.835Z,14.59
2022-10-02T15:11:40.312Z,14.41
2022-10-02T15:14:43.668Z,14.50
2022-10-02T15:18:08.128Z,14.60
2022-10-02T15:21:26.966Z,14.51
2022-10-02T15:24:34.035Z,14.49
2022-10-02T15:28:24.121Z,14.51
2022-10-02T15:32:07.739Z,14.30
2022-10-02T15:35:39.293Z,14.54
2022-10-02T15:38:53.941Z,14.46
2022-10-02T15:43:01.168Z,14.59
2022-10-02T15:50:54.337Z,14.32
2022-10-02T15:54:19.132Z,14.21
2022-10-02T16:01:28.232Z,14.37
2022-10-02T16:04:55.676Z,14.31
2022-10-02T16:08:12.949Z,14.18
2022-10-02T16:11:31.534Z,14.26
2022-10-02T16:14:53.272Z,14.10
2022-10-02T16:18:19.993Z,13.99
2022-10-02T16:21:35.644Z,14.07
2022-10-02T16:24:44.319Z,13.83
2022-10-02T16:28:05.635Z,13.91
2022-10-02T16:31:37.217Z,13.83
2022-10-02T16:38:51.499Z,13.72
2022-10-02T16:42:02.458Z,13.63
2022-10-02T16:45:29.519Z,13.65
2022-10-02T16:48:51.339Z,13.64
2022-10-02T16:51:56.262Z,13.49
2022-10-02T16:55:24.559Z,13.53
2022-10-02T16:58:48.536Z,13.51
2022-10-02T17:02:18.058Z,13.50
2022-10-02T17:09:37.274Z,13.57
2022-10-02T17:13:08.853Z,13.46
2022-10-02T17:17:03.434Z,13.51
2022-10-02T17:20:52.652Z,13.48
2022-10-02T17:24:17.491Z,13.65
2022-10-02T17:27:45.559Z,13.49
2022-10-02T17:31:09.449Z,13.48
2022-10-02T17:34:45.176Z,13.41
2022-10-02T17:37:55.137Z,13.43
2022-10-02T17:40:57.792Z,13.48
2022-10-02T17:48:07.550Z,13.45
2022-10-02T17:55:49.382Z,13.42
2022-10-02T17:59:17.666Z,13.42
2022-10-02T18:10:00.753Z,13.37
2022-10-02T18:13:32.938Z,13.32
2022-10-02T18:16:38.120Z,13.31
2022-10-02T18:20:09.216Z,13.31
2022-10-02T18:27:01.799Z,13.34
2022-10-02T18:30:19.153Z,13.29
2022-10-02T18:33:41.019Z,13.30
2022-10-02T18:37:11.811Z,13.34
2022-10-02T18:40:23.021Z,13.20
2022-10-02T18:43:55.024Z,13.27
2022-10-02T18:46:59.488Z,13.16
2022-10-02T18:50:10.985Z,13.13
2022-10-02T18:53:23.388Z,13.21
2022-10-02T18:56:56.438Z,13.10
2022-10-02T19:00:07.688Z,13.19
2022-10-02T19:03:19.216Z,13.23
2022-10-02T19:06:36.321Z,13.16
2022-10-02T19:09:41.578Z,13.16
2022-10-02T19:12:44.770Z,13.00
2022-10-02T19:15:52.827Z,13.12
2022-10-02T19:19:14.107Z,13.14
2022-10-02T19:22:37.615Z,13.12
2022-10-02T19:25:46.642Z,13.08
2022-10-02T19:29:34.186Z,13.06
2022-10-02T19:32:43.164Z,13.14
2022-10-02T19:35:46.081Z,13.02
2022-10-02T19:39:08.038Z,13.06
2022-10-02T19:42:20.948Z,12.98
2022-10-02T19:45:26.909Z,12.99
2022-10-02T19:48:29.999Z,12.86
2022-10-02T19:51:43.013Z,12.78
2022-10-02T19:54:47.160Z,13.01
2022-10-02T19:57:50.570Z,13.04
2022-10-02T20:00:53.929Z,12.86
2022-10-02T20:03:58.019Z,12.82
2022-10-02T20:07:02.353Z,12.88
2022-10-02T20:10:16.385Z,12.85
2022-10-02T20:13:48.339Z,12.92
2022-10-02T20:17:09.161Z,12.90
2022-10-02T20:20:13.574Z,12.91
2022-10-02T20:23:17.698Z,12.81
2022-10-02T20:26:24.664Z,12.80
2022-10-02T20:29:29.137Z,12.85
2022-10-02T20:32:32.415Z,12.92
2022-10-02T20:35:37.551Z,12.89
2022-10-02T20:38:43.148Z,12.89
2022-10-02T20:41:58.908Z,12.86
2022-10-02T20:45:01.892Z,12.98
2022-10-02T20:48:13.132Z,12.97
2022-10-02T20:51:16.267Z,12.92
2022-10-02T20:54:27.668Z,12.79
2022-10-02T20:57:49.630Z,12.79
2022-10-02T21:00:59.745Z,12.65
2022-10-02T21:07:20.769Z,12.63
2022-10-02T21:10:29.450Z,12.61
2022-10-02T21:13:38.499Z,12.67
2022-10-02T21:16:50.437Z,12.55
2022-10-02T21:20:02.310Z,12.30
2022-10-02T21:23:14.852Z,12.42
2022-10-02T21:26:33.139Z,12.38
2022-10-02T21:29:55.994Z,12.45
2022-10-02T21:33:19.162Z,12.36
2022-10-02T21:36:23.677Z,12.44
2022-10-02T21:39:56.586Z,12.39
2022-10-02T21:43:24.124Z,12.35
2022-10-02T21:46:33.012Z,12.28
2022-10-02T21:49:35.884Z,12.24
2022-10-02T21:52:38.714Z,12.21
2022-10-02T21:56:05.497Z,12.28
2022-10-02T21:59:23.839Z,12.19
2022-10-02T22:02:56.420Z,12.25
2022-10-02T22:25:35.812Z,12.25
2022-10-02T22:59:22.263Z,12.09
2022-10-02T23:06:43.256Z,12.15
2022-10-02T23:10:09.231Z,12.13
2022-10-02T23:13:38.490Z,11.88
2022-10-02T23:16:53.273Z,11.96
2022-10-02T23:20:05.519Z,11.92
2022-10-02T23:23:43.676Z,11.90
2022-10-02T23:26:47.259Z,11.89
2022-10-02T23:29:56.758Z,11.96
2022-10-02T23:32:59.600Z,11.92
2022-10-02T23:36:24.537Z,11.98
2022-10-02T23:39:47.141Z,11.93
2022-10-02T23:42:55.867Z,11.80
2022-10-02T23:46:01.176Z,11.84
2022-10-02T23:49:09.504Z,11.61
2022-10-02T23:52:35.027Z,11.55
2022-10-02T23:55:47.098Z,11.49
2022-10-02T23:59:21.865Z,11.39
